sensor_id;sensor_type;location;lat;lon;timestamp;pressure;altitude;pressure_sealevel;temperature;humidity
27712;BME280;2377;51.734;8.950;2023-04-04T00:00:22;99056.56;;;0.84;63.59
27712;BME280;2377;51.734;8.950;2023-04-04T00:02:49;99056.03;;;0.80;64.14
27712;BME280;2377;51.734;8.950;2023-04-04T00:05:16;99057.19;;;0.76;64.52
27712;BME280;2377;51.734;8.950;2023-04-04T00:07:45;99053.28;;;0.72;64.63
27712;BME280;2377;51.734;8.950;2023-04-04T00:10:12;99058.69;;;0.68;64.12
27712;BME280;2377;51.734;8.950;2023-04-04T00:12:41;99061.44;;;0.65;64.66
27712;BME280;2377;51.734;8.950;2023-04-04T00:15:10;99059.03;;;0.63;64.63
27712;BME280;2377;51.734;8.950;2023-04-04T00:17:37;99056.66;;;0.61;64.35
27712;BME280;2377;51.734;8.950;2023-04-04T00:20:06;99054.34;;;0.58;64.83
27712;BME280;2377;51.734;8.950;2023-04-04T00:22:34;99059.28;;;0.60;64.37
27712;BME280;2377;51.734;8.950;2023-04-04T00:25:01;99057.69;;;0.59;64.50
27712;BME280;2377;51.734;8.950;2023-04-04T00:27:28;99063.72;;;0.56;64.61
27712;BME280;2377;51.734;8.950;2023-04-04T00:29:56;99057.22;;;0.54;64.85
27712;BME280;2377;51.734;8.950;2023-04-04T00:32:23;99058.38;;;0.50;64.82
27712;BME280;2377;51.734;8.950;2023-04-04T00:34:51;99068.66;;;0.47;64.57
27712;BME280;2377;51.734;8.950;2023-04-04T00:37:19;99068.31;;;0.40;65.05
27712;BME280;2377;51.734;8.950;2023-04-04T00:39:46;99068.00;;;0.33;65.41
27712;BME280;2377;51.734;8.950;2023-04-04T00:42:14;99066.97;;;0.25;65.57
27712;BME280;2377;51.734;8.950;2023-04-04T00:44:41;99066.72;;;0.16;65.67
27712;BME280;2377;51.734;8.950;2023-04-04T00:47:09;99061.47;;;0.08;65.96
27712;BME280;2377;51.734;8.950;2023-04-04T00:49:37;99057.59;;;0.04;66.35
27712;BME280;2377;51.734;8.950;2023-04-04T00:52:04;99061.72;;;0.05;66.49
27712;BME280;2377;51.734;8.950;2023-04-04T00:54:33;99050.75;;;0.06;66.55
27712;BME280;2377;51.734;8.950;2023-04-04T00:57:01;99058.97;;;0.08;66.61
27712;BME280;2377;51.734;8.950;2023-04-04T00:59:28;99056.34;;;0.10;66.45
27712;BME280;2377;51.734;8.950;2023-04-04T01:01:56;99058.88;;;0.10;66.79
27712;BME280;2377;51.734;8.950;2023-04-04T01:04:26;99054.19;;;0.05;66.60
27712;BME280;2377;51.734;8.950;2023-04-04T01:06:54;99054.53;;;0.01;66.71
27712;BME280;2377;51.734;8.950;2023-04-04T01:09:22;99054.84;;;-0.04;66.90
27712;BME280;2377;51.734;8.950;2023-04-04T01:11:49;99050.63;;;-0.04;67.32
27712;BME280;2377;51.734;8.950;2023-04-04T01:14:17;99049.84;;;-0.04;67.15
27712;BME280;2377;51.734;8.950;2023-04-04T01:16:44;99047.31;;;-0.04;67.42
27712;BME280;2377;51.734;8.950;2023-04-04T01:19:33;99051.41;;;-0.03;67.41
27712;BME280;2377;51.734;8.950;2023-04-04T01:22:03;99049.34;;;0.02;67.45
27712;BME280;2377;51.734;8.950;2023-04-04T01:24:34;99040.69;;;0.06;67.52
27712;BME280;2377;51.734;8.950;2023-04-04T01:27:03;99046.41;;;0.08;67.38
27712;BME280;2377;51.734;8.950;2023-04-04T01:29:30;99041.47;;;0.07;67.44
27712;BME280;2377;51.734;8.950;2023-04-04T01:32:04;99040.69;;;0.06;67.18
27712;BME280;2377;51.734;8.950;2023-04-04T01:34:42;99041.63;;;0.05;67.19
27712;BME280;2377;51.734;8.950;2023-04-04T01:37:18;99045.03;;;0.04;67.33
27712;BME280;2377;51.734;8.950;2023-04-04T01:39:52;99050.06;;;0.04;67.61
27712;BME280;2377;51.734;8.950;2023-04-04T01:42:23;99041.97;;;0.01;67.21
27712;BME280;2377;51.734;8.950;2023-04-04T01:44:55;99047.19;;;-0.03;67.42
27712;BME280;2377;51.734;8.950;2023-04-04T01:47:22;99034.06;;;-0.06;67.33
27712;BME280;2377;51.734;8.950;2023-04-04T01:49:49;99050.03;;;-0.07;67.62
27712;BME280;2377;51.734;8.950;2023-04-04T01:52:18;99033.38;;;-0.08;67.71
27712;BME280;2377;51.734;8.950;2023-04-04T01:54:46;99037.59;;;-0.09;67.76
27712;BME280;2377;51.734;8.950;2023-04-04T01:57:13;99026.78;;;-0.09;67.94
27712;BME280;2377;51.734;8.950;2023-04-04T01:59:41;99027.44;;;-0.07;67.83
27712;BME280;2377;51.734;8.950;2023-04-04T02:02:08;99026.53;;;-0.06;67.64
27712;BME280;2377;51.734;8.950;2023-04-04T02:04:36;99024.91;;;-0.07;67.90
27712;BME280;2377;51.734;8.950;2023-04-04T02:07:03;99027.31;;;-0.06;67.92
27712;BME280;2377;51.734;8.950;2023-04-04T02:09:31;99020.72;;;-0.07;67.90
27712;BME280;2377;51.734;8.950;2023-04-04T02:11:58;99020.56;;;-0.05;68.34
27712;BME280;2377;51.734;8.950;2023-04-04T02:14:25;99022.19;;;-0.04;67.81
27712;BME280;2377;51.734;8.950;2023-04-04T02:16:54;99020.56;;;-0.05;67.88
27712;BME280;2377;51.734;8.950;2023-04-04T02:19:21;99017.03;;;-0.03;68.05
27712;BME280;2377;51.734;8.950;2023-04-04T02:21:49;99026.19;;;-0.02;68.02
27712;BME280;2377;51.734;8.950;2023-04-04T02:24:16;99024.47;;;-0.01;67.67
27712;BME280;2377;51.734;8.950;2023-04-04T02:26:43;99025.16;;;0.01;67.97
27712;BME280;2377;51.734;8.950;2023-04-04T02:29:10;99018.41;;;0.02;67.79
27712;BME280;2377;51.734;8.950;2023-04-04T02:31:37;99020.94;;;0.02;68.06
27712;BME280;2377;51.734;8.950;2023-04-04T02:34:05;99020.03;;;0.03;67.93
27712;BME280;2377;51.734;8.950;2023-04-04T02:36:32;99017.38;;;0.04;68.07
27712;BME280;2377;51.734;8.950;2023-04-04T02:38:59;99008.94;;;0.05;67.57
27712;BME280;2377;51.734;8.950;2023-04-04T02:41:27;99006.44;;;0.05;67.68
27712;BME280;2377;51.734;8.950;2023-04-04T02:43:54;99004.81;;;0.04;67.66
27712;BME280;2377;51.734;8.950;2023-04-04T02:46:21;98999.91;;;0.03;67.49
27712;BME280;2377;51.734;8.950;2023-04-04T02:48:48;99004.13;;;0.02;67.62
27712;BME280;2377;51.734;8.950;2023-04-04T02:51:18;98985.75;;;0.02;67.72
27712;BME280;2377;51.734;8.950;2023-04-04T02:53:45;98994.31;;;-0.01;67.94
27712;BME280;2377;51.734;8.950;2023-04-04T02:56:12;98991.81;;;-0.01;68.06
27712;BME280;2377;51.734;8.950;2023-04-04T02:58:39;98992.72;;;-0.02;68.16
27712;BME280;2377;51.734;8.950;2023-04-04T03:01:06;98988.38;;;0.00;68.76
27712;BME280;2377;51.734;8.950;2023-04-04T03:03:33;98997.41;;;0.03;68.92
27712;BME280;2377;51.734;8.950;2023-04-04T03:06:01;98991.56;;;0.02;69.17
27712;BME280;2377;51.734;8.950;2023-04-04T03:08:29;98993.19;;;0.03;68.98
27712;BME280;2377;51.734;8.950;2023-04-04T03:10:56;98992.50;;;0.01;69.30
27712;BME280;2377;51.734;8.950;2023-04-04T03:13:23;98988.38;;;0.00;68.54
27712;BME280;2377;51.734;8.950;2023-04-04T03:15:57;98993.63;;;-0.03;68.71
27712;BME280;2377;51.734;8.950;2023-04-04T03:18:24;98995.59;;;-0.07;68.81
27712;BME280;2377;51.734;8.950;2023-04-04T03:20:51;98984.16;;;-0.11;69.06
27712;BME280;2377;51.734;8.950;2023-04-04T03:23:18;98983.47;;;-0.13;69.14
27712;BME280;2377;51.734;8.950;2023-04-04T03:25:47;98978.78;;;-0.17;68.96
27712;BME280;2377;51.734;8.950;2023-04-04T03:28:14;98976.63;;;-0.22;69.08
27712;BME280;2377;51.734;8.950;2023-04-04T03:30:41;98966.81;;;-0.25;69.11
27712;BME280;2377;51.734;8.950;2023-04-04T03:33:08;98970.91;;;-0.24;69.24
27712;BME280;2377;51.734;8.950;2023-04-04T03:35:37;98967.34;;;-0.22;69.82
27712;BME280;2377;51.734;8.950;2023-04-04T03:38:04;98960.66;;;-0.21;70.05
27712;BME280;2377;51.734;8.950;2023-04-04T03:40:31;98961.19;;;-0.17;70.29
27712;BME280;2377;51.734;8.950;2023-04-04T03:43:00;98956.19;;;-0.17;70.28
27712;BME280;2377;51.734;8.950;2023-04-04T03:45:28;98959.47;;;-0.17;70.77
27712;BME280;2377;51.734;8.950;2023-04-04T03:47:55;98959.03;;;-0.22;71.11
27712;BME280;2377;51.734;8.950;2023-04-04T03:50:22;98960.50;;;-0.31;71.18
27712;BME280;2377;51.734;8.950;2023-04-04T03:52:49;98959.84;;;-0.33;71.74
27712;BME280;2377;51.734;8.950;2023-04-04T03:55:17;98960.75;;;-0.34;72.27
27712;BME280;2377;51.734;8.950;2023-04-04T03:57:44;98951.63;;;-0.35;71.68
27712;BME280;2377;51.734;8.950;2023-04-04T04:00:13;98953.44;;;-0.37;72.82
27712;BME280;2377;51.734;8.950;2023-04-04T04:02:41;98953.00;;;-0.42;72.52
27712;BME280;2377;51.734;8.950;2023-04-04T04:05:08;98957.31;;;-0.44;72.85
27712;BME280;2377;51.734;8.950;2023-04-04T04:07:35;98960.03;;;-0.47;72.48
27712;BME280;2377;51.734;8.950;2023-04-04T04:10:03;98960.88;;;-0.47;73.08
27712;BME280;2377;51.734;8.950;2023-04-04T04:12:31;98953.19;;;-0.45;73.06
27712;BME280;2377;51.734;8.950;2023-04-04T04:14:58;98953.88;;;-0.43;73.18
27712;BME280;2377;51.734;8.950;2023-04-04T04:17:26;98953.09;;;-0.44;73.13
27712;BME280;2377;51.734;8.950;2023-04-04T04:19:53;98954.34;;;-0.49;73.41
27712;BME280;2377;51.734;8.950;2023-04-04T04:22:21;98954.56;;;-0.52;73.24
27712;BME280;2377;51.734;8.950;2023-04-04T04:24:48;98960.06;;;-0.58;73.92
27712;BME280;2377;51.734;8.950;2023-04-04T04:27:15;98953.22;;;-0.56;74.15
27712;BME280;2377;51.734;8.950;2023-04-04T04:29:42;98953.22;;;-0.56;73.62
27712;BME280;2377;51.734;8.950;2023-04-04T04:32:09;98958.22;;;-0.56;74.03
27712;BME280;2377;51.734;8.950;2023-04-04T04:34:38;98954.00;;;-0.56;73.65
27712;BME280;2377;51.734;8.950;2023-04-04T04:37:05;98952.28;;;-0.55;73.83
27712;BME280;2377;51.734;8.950;2023-04-04T04:39:32;98942.25;;;-0.55;73.50
27712;BME280;2377;51.734;8.950;2023-04-04T04:42:00;98936.53;;;-0.57;73.28
27712;BME280;2377;51.734;8.950;2023-04-04T04:44:28;98937.56;;;-0.60;73.34
27712;BME280;2377;51.734;8.950;2023-04-04T04:46:55;98939.28;;;-0.60;73.42
27712;BME280;2377;51.734;8.950;2023-04-04T04:49:22;98930.13;;;-0.61;72.99
27712;BME280;2377;51.734;8.950;2023-04-04T04:51:50;98928.56;;;-0.62;72.59
27712;BME280;2377;51.734;8.950;2023-04-04T04:54:18;98930.47;;;-0.66;72.74
27712;BME280;2377;51.734;8.950;2023-04-04T04:56:45;98942.47;;;-0.70;72.29
27712;BME280;2377;51.734;8.950;2023-04-04T04:59:12;98934.25;;;-0.72;72.81
27712;BME280;2377;51.734;8.950;2023-04-04T05:01:40;98940.28;;;-0.74;72.86
27712;BME280;2377;51.734;8.950;2023-04-04T05:04:07;98943.13;;;-0.79;72.29
27712;BME280;2377;51.734;8.950;2023-04-04T05:06:34;98939.94;;;-0.81;72.60
27712;BME280;2377;51.734;8.950;2023-04-04T05:09:04;98944.25;;;-0.83;72.41
27712;BME280;2377;51.734;8.950;2023-04-04T05:11:31;98947.88;;;-0.87;72.47
27712;BME280;2377;51.734;8.950;2023-04-04T05:13:58;98941.28;;;-0.88;72.50
27712;BME280;2377;51.734;8.950;2023-04-04T05:16:26;98947.22;;;-0.89;72.60
27712;BME280;2377;51.734;8.950;2023-04-04T05:18:53;98947.22;;;-0.89;72.57
27712;BME280;2377;51.734;8.950;2023-04-04T05:21:20;98953.28;;;-0.92;72.37
27712;BME280;2377;51.734;8.950;2023-04-04T05:23:48;98958.28;;;-0.92;73.02
27712;BME280;2377;51.734;8.950;2023-04-04T05:26:16;98961.47;;;-0.90;72.96
27712;BME280;2377;51.734;8.950;2023-04-04T05:28:43;98963.06;;;-0.89;73.00
27712;BME280;2377;51.734;8.950;2023-04-04T05:31:10;98970.38;;;-0.86;72.80
27712;BME280;2377;51.734;8.950;2023-04-04T05:33:37;98971.16;;;-0.85;72.96
27712;BME280;2377;51.734;8.950;2023-04-04T05:36:05;98967.63;;;-0.82;73.33
27712;BME280;2377;51.734;8.950;2023-04-04T05:38:36;98965.72;;;-0.79;73.21
27712;BME280;2377;51.734;8.950;2023-04-04T05:41:04;98976.22;;;-0.74;73.15
27712;BME280;2377;51.734;8.950;2023-04-04T05:43:32;98972.59;;;-0.70;73.24
27712;BME280;2377;51.734;8.950;2023-04-04T05:45:59;98977.38;;;-0.67;73.42
27712;BME280;2377;51.734;8.950;2023-04-04T05:48:26;98987.78;;;-0.60;73.40
27712;BME280;2377;51.734;8.950;2023-04-04T05:50:53;98980.94;;;-0.58;73.40
27712;BME280;2377;51.734;8.950;2023-04-04T05:53:20;98977.28;;;-0.54;73.56
27712;BME280;2377;51.734;8.950;2023-04-04T05:55:50;98972.59;;;-0.47;73.91
27712;BME280;2377;51.734;8.950;2023-04-04T05:58:18;98977.19;;;-0.41;74.15
27712;BME280;2377;51.734;8.950;2023-04-04T06:00:46;98980.84;;;-0.34;74.06
27712;BME280;2377;51.734;8.950;2023-04-04T06:03:13;98986.31;;;-0.29;74.27
27712;BME280;2377;51.734;8.950;2023-04-04T06:05:41;98985.78;;;-0.21;74.84
27712;BME280;2377;51.734;8.950;2023-04-04T06:08:09;98982.69;;;-0.13;74.49
27712;BME280;2377;51.734;8.950;2023-04-04T06:10:36;98987.34;;;-0.09;74.98
27712;BME280;2377;51.734;8.950;2023-04-04T06:13:03;98984.03;;;0.02;75.11
27712;BME280;2377;51.734;8.950;2023-04-04T06:15:30;98986.09;;;0.08;74.45
27712;BME280;2377;51.734;8.950;2023-04-04T06:17:59;98989.72;;;0.15;74.86
27712;BME280;2377;51.734;8.950;2023-04-04T06:20:26;98988.09;;;0.26;75.21
27712;BME280;2377;51.734;8.950;2023-04-04T06:22:53;98993.81;;;0.39;74.87
27712;BME280;2377;51.734;8.950;2023-04-04T06:25:20;98998.56;;;0.53;74.49
27712;BME280;2377;51.734;8.950;2023-04-04T06:27:47;99004.50;;;0.63;74.65
27712;BME280;2377;51.734;8.950;2023-04-04T06:30:15;99011.56;;;0.70;74.94
27712;BME280;2377;51.734;8.950;2023-04-04T06:32:42;99006.84;;;0.76;74.69
27712;BME280;2377;51.734;8.950;2023-04-04T06:35:11;99010.50;;;0.83;74.53
27712;BME280;2377;51.734;8.950;2023-04-04T06:37:38;99008.72;;;0.95;75.08
27712;BME280;2377;51.734;8.950;2023-04-04T06:40:07;99019.06;;;1.13;75.02
27712;BME280;2377;51.734;8.950;2023-04-04T06:42:34;99024.84;;;1.25;74.92
27712;BME280;2377;51.734;8.950;2023-04-04T06:45:01;99016.00;;;1.31;74.78
27712;BME280;2377;51.734;8.950;2023-04-04T06:47:29;99027.28;;;1.36;74.48
27712;BME280;2377;51.734;8.950;2023-04-04T06:49:57;99019.97;;;1.54;74.47
27712;BME280;2377;51.734;8.950;2023-04-04T06:52:26;99020.72;;;1.66;73.05
27712;BME280;2377;51.734;8.950;2023-04-04T06:54:53;99026.34;;;1.79;72.78
27712;BME280;2377;51.734;8.950;2023-04-04T06:57:21;99027.75;;;1.93;72.91
27712;BME280;2377;51.734;8.950;2023-04-04T06:59:48;99028.88;;;2.10;71.60
27712;BME280;2377;51.734;8.950;2023-04-04T07:02:15;99029.28;;;2.15;69.29
27712;BME280;2377;51.734;8.950;2023-04-04T07:04:42;99027.44;;;2.17;69.21
27712;BME280;2377;51.734;8.950;2023-04-04T07:07:10;99030.78;;;2.27;68.46
27712;BME280;2377;51.734;8.950;2023-04-04T07:09:38;99032.25;;;2.40;67.70
27712;BME280;2377;51.734;8.950;2023-04-04T07:12:05;99033.59;;;2.44;65.27
27712;BME280;2377;51.734;8.950;2023-04-04T07:14:32;99032.94;;;2.42;66.30
27712;BME280;2377;51.734;8.950;2023-04-04T07:16:59;99038.66;;;2.53;66.59
27712;BME280;2377;51.734;8.950;2023-04-04T07:19:27;99033.91;;;2.60;64.32
27712;BME280;2377;51.734;8.950;2023-04-04T07:21:54;99034.19;;;2.67;65.87
27712;BME280;2377;51.734;8.950;2023-04-04T07:24:21;99034.34;;;2.85;65.71
27712;BME280;2377;51.734;8.950;2023-04-04T07:26:49;99028.34;;;3.05;64.79
27712;BME280;2377;51.734;8.950;2023-04-04T07:29:17;99028.34;;;3.25;64.49
27712;BME280;2377;51.734;8.950;2023-04-04T07:31:44;99023.78;;;3.38;63.16
27712;BME280;2377;51.734;8.950;2023-04-04T07:34:11;99024.97;;;3.53;64.05
27712;BME280;2377;51.734;8.950;2023-04-04T07:36:38;99027.97;;;3.67;61.92
27712;BME280;2377;51.734;8.950;2023-04-04T07:39:05;99025.28;;;3.78;61.60
27712;BME280;2377;51.734;8.950;2023-04-04T07:41:32;99030.56;;;3.94;60.78
27712;BME280;2377;51.734;8.950;2023-04-04T07:44:01;99033.88;;;4.05;60.20
27712;BME280;2377;51.734;8.950;2023-04-04T07:46:28;99034.59;;;4.15;60.24
27712;BME280;2377;51.734;8.950;2023-04-04T07:48:56;99034.13;;;4.29;59.82
27712;BME280;2377;51.734;8.950;2023-04-04T07:51:23;99036.75;;;4.37;58.43
27712;BME280;2377;51.734;8.950;2023-04-04T07:53:54;99030.84;;;4.47;59.50
27712;BME280;2377;51.734;8.950;2023-04-04T07:56:21;99026.78;;;4.54;58.08
27712;BME280;2377;51.734;8.950;2023-04-04T07:58:48;99028.41;;;4.55;58.32
27712;BME280;2377;51.734;8.950;2023-04-04T08:01:17;99020.94;;;4.53;57.16
27712;BME280;2377;51.734;8.950;2023-04-04T08:03:44;99021.72;;;4.54;57.02
27712;BME280;2377;51.734;8.950;2023-04-04T08:06:12;99020.44;;;4.68;57.78
27712;BME280;2377;51.734;8.950;2023-04-04T08:08:39;99028.78;;;4.78;56.54
27712;BME280;2377;51.734;8.950;2023-04-04T08:11:07;99023.41;;;4.81;55.89
27712;BME280;2377;51.734;8.950;2023-04-04T08:13:34;99028.19;;;4.84;56.43
27712;BME280;2377;51.734;8.950;2023-04-04T08:16:02;99022.69;;;4.88;55.65
27712;BME280;2377;51.734;8.950;2023-04-04T08:18:30;99021.47;;;4.93;55.90
27712;BME280;2377;51.734;8.950;2023-04-04T08:20:58;99030.38;;;4.97;56.31
27712;BME280;2377;51.734;8.950;2023-04-04T08:23:25;99023.00;;;5.03;56.78
27712;BME280;2377;51.734;8.950;2023-04-04T08:25:52;99024.19;;;5.17;56.19
27712;BME280;2377;51.734;8.950;2023-04-04T08:28:19;99020.75;;;5.26;55.37
27712;BME280;2377;51.734;8.950;2023-04-04T08:30:47;99016.69;;;5.34;53.59
27712;BME280;2377;51.734;8.950;2023-04-04T08:33:14;99022.28;;;5.37;54.33
27712;BME280;2377;51.734;8.950;2023-04-04T08:35:43;99027.56;;;5.44;54.68
27712;BME280;2377;51.734;8.950;2023-04-04T08:38:10;99028.75;;;5.58;55.16
27712;BME280;2377;51.734;8.950;2023-04-04T08:40:37;99015.66;;;5.70;54.65
27712;BME280;2377;51.734;8.950;2023-04-04T08:43:05;99025.13;;;5.60;53.99
27712;BME280;2377;51.734;8.950;2023-04-04T08:45:33;99020.19;;;5.59;53.34
27712;BME280;2377;51.734;8.950;2023-04-04T08:48:03;99020.16;;;5.50;52.88
27712;BME280;2377;51.734;8.950;2023-04-04T08:50:32;99023.97;;;5.55;54.68
27712;BME280;2377;51.734;8.950;2023-04-04T08:53:03;99023.81;;;5.56;53.90
27712;BME280;2377;51.734;8.950;2023-04-04T08:55:31;99021.31;;;5.64;53.80
27712;BME280;2377;51.734;8.950;2023-04-04T08:57:58;99028.03;;;5.73;53.86
27712;BME280;2377;51.734;8.950;2023-04-04T09:00:25;99028.44;;;5.87;54.03
27712;BME280;2377;51.734;8.950;2023-04-04T09:02:58;99033.75;;;6.02;52.59
27712;BME280;2377;51.734;8.950;2023-04-04T09:05:28;99030.47;;;6.09;52.00
27712;BME280;2377;51.734;8.950;2023-04-04T09:07:56;99026.38;;;6.17;51.65
27712;BME280;2377;51.734;8.950;2023-04-04T09:10:25;99037.78;;;6.12;51.71
27712;BME280;2377;51.734;8.950;2023-04-04T09:12:55;99039.41;;;6.22;50.93
27712;BME280;2377;51.734;8.950;2023-04-04T09:15:23;99039.00;;;6.43;51.21
27712;BME280;2377;51.734;8.950;2023-04-04T09:17:50;99033.91;;;6.51;48.66
27712;BME280;2377;51.734;8.950;2023-04-04T09:20:42;99032.16;;;6.35;49.00
27712;BME280;2377;51.734;8.950;2023-04-04T09:23:11;99025.91;;;6.29;48.91
27712;BME280;2377;51.734;8.950;2023-04-04T09:25:45;99027.22;;;6.33;49.17
27712;BME280;2377;51.734;8.950;2023-04-04T09:28:14;99021.03;;;6.44;49.05
27712;BME280;2377;51.734;8.950;2023-04-04T09:30:42;99021.56;;;6.64;49.68
27712;BME280;2377;51.734;8.950;2023-04-04T09:33:13;99027.13;;;6.76;50.76
27712;BME280;2377;51.734;8.950;2023-04-04T09:35:45;99023.50;;;6.87;48.91
27712;BME280;2377;51.734;8.950;2023-04-04T09:38:13;99023.03;;;6.99;49.96
27712;BME280;2377;51.734;8.950;2023-04-04T09:40:43;99024.94;;;7.06;49.47
27712;BME280;2377;51.734;8.950;2023-04-04T09:43:13;99023.97;;;7.07;48.24
27712;BME280;2377;51.734;8.950;2023-04-04T09:45:44;99019.22;;;7.04;48.48
27712;BME280;2377;51.734;8.950;2023-04-04T09:48:11;99013.47;;;7.10;48.46
27712;BME280;2377;51.734;8.950;2023-04-04T09:50:46;99019.84;;;7.22;47.64
27712;BME280;2377;51.734;8.950;2023-04-04T09:53:16;99020.16;;;7.27;47.63
27712;BME280;2377;51.734;8.950;2023-04-04T09:55:50;99015.53;;;7.31;48.49
27712;BME280;2377;51.734;8.950;2023-04-04T09:58:22;99012.84;;;7.24;47.41
27712;BME280;2377;51.734;8.950;2023-04-04T10:00:52;99014.13;;;7.12;47.76
27712;BME280;2377;51.734;8.950;2023-04-04T10:03:22;99012.06;;;7.15;49.71
27712;BME280;2377;51.734;8.950;2023-04-04T10:05:55;99011.59;;;7.12;48.16
27712;BME280;2377;51.734;8.950;2023-04-04T10:08:27;99010.00;;;7.11;45.74
27712;BME280;2377;51.734;8.950;2023-04-04T10:10:58;99008.41;;;7.18;48.44
27712;BME280;2377;51.734;8.950;2023-04-04T10:13:26;98999.84;;;7.11;46.99
27712;BME280;2377;51.734;8.950;2023-04-04T10:15:55;98998.09;;;7.03;47.24
27712;BME280;2377;51.734;8.950;2023-04-04T10:18:24;98996.03;;;7.15;48.37
27712;BME280;2377;51.734;8.950;2023-04-04T10:20:53;99000.75;;;7.34;45.72
27712;BME280;2377;51.734;8.950;2023-04-04T10:23:23;98999.34;;;7.24;45.59
27712;BME280;2377;51.734;8.950;2023-04-04T10:25:52;98989.97;;;7.16;45.77
27712;BME280;2377;51.734;8.950;2023-04-04T10:28:21;98994.09;;;7.25;45.48
27712;BME280;2377;51.734;8.950;2023-04-04T10:30:55;98993.44;;;7.39;47.99
27712;BME280;2377;51.734;8.950;2023-04-04T10:33:38;98989.63;;;7.35;43.81
27712;BME280;2377;51.734;8.950;2023-04-04T10:36:10;98988.03;;;7.26;44.97
27712;BME280;2377;51.734;8.950;2023-04-04T10:38:42;98982.34;;;7.16;45.56
27712;BME280;2377;51.734;8.950;2023-04-04T10:41:12;98981.53;;;7.32;46.80
27712;BME280;2377;51.734;8.950;2023-04-04T10:43:46;98978.19;;;7.39;46.19
27712;BME280;2377;51.734;8.950;2023-04-04T10:46:17;98972.16;;;7.32;45.16
27712;BME280;2377;51.734;8.950;2023-04-04T10:48:47;98965.50;;;7.23;45.00
27712;BME280;2377;51.734;8.950;2023-04-04T10:51:15;98980.13;;;7.29;46.47
27712;BME280;2377;51.734;8.950;2023-04-04T10:53:44;98967.03;;;7.40;44.85
27712;BME280;2377;51.734;8.950;2023-04-04T10:56:12;98977.88;;;7.34;43.27
27712;BME280;2377;51.734;8.950;2023-04-04T10:58:40;98970.41;;;7.33;45.35
27712;BME280;2377;51.734;8.950;2023-04-04T11:01:08;98958.44;;;7.50;46.77
27712;BME280;2377;51.734;8.950;2023-04-04T11:04:16;98960.66;;;7.45;43.94
27712;BME280;2377;51.734;8.950;2023-04-04T11:07:13;98949.56;;;7.46;45.84
27712;BME280;2377;51.734;8.950;2023-04-04T11:09:52;98952.22;;;7.60;47.38
27712;BME280;2377;51.734;8.950;2023-04-04T11:12:28;98952.97;;;7.69;46.04
27712;BME280;2377;51.734;8.950;2023-04-04T11:15:07;98951.03;;;7.71;46.49
27712;BME280;2377;51.734;8.950;2023-04-04T11:18:00;98948.03;;;7.68;45.15
27712;BME280;2377;51.734;8.950;2023-04-04T11:20:34;98949.50;;;7.62;46.22
27712;BME280;2377;51.734;8.950;2023-04-04T11:23:07;98940.59;;;7.58;45.05
27712;BME280;2377;51.734;8.950;2023-04-04T11:25:39;98930.13;;;7.53;44.66
27712;BME280;2377;51.734;8.950;2023-04-04T11:28:12;98934.72;;;7.57;46.33
27712;BME280;2377;51.734;8.950;2023-04-04T11:30:43;98942.81;;;7.61;46.74
27712;BME280;2377;51.734;8.950;2023-04-04T11:33:26;98941.19;;;7.68;46.81
27712;BME280;2377;51.734;8.950;2023-04-04T11:35:58;98937.72;;;7.69;45.93
27712;BME280;2377;51.734;8.950;2023-04-04T11:38:28;98929.47;;;7.59;45.40
27712;BME280;2377;51.734;8.950;2023-04-04T11:40:56;98927.25;;;7.56;45.37
27712;BME280;2377;51.734;8.950;2023-04-04T11:43:25;98931.88;;;7.52;44.25
27712;BME280;2377;51.734;8.950;2023-04-04T11:46:05;98937.44;;;7.56;44.52
27712;BME280;2377;51.734;8.950;2023-04-04T11:48:37;98930.56;;;7.65;44.92
27712;BME280;2377;51.734;8.950;2023-04-04T11:51:06;98921.81;;;7.67;44.98
27712;BME280;2377;51.734;8.950;2023-04-04T11:53:34;98910.00;;;7.74;45.82
27712;BME280;2377;51.734;8.950;2023-04-04T11:56:01;98914.41;;;7.80;46.23
27712;BME280;2377;51.734;8.950;2023-04-04T11:58:28;98914.72;;;7.86;46.40
27712;BME280;2377;51.734;8.950;2023-04-04T12:00:57;98906.06;;;7.95;47.53
27712;BME280;2377;51.734;8.950;2023-04-04T12:03:27;98904.63;;;8.00;48.00
27712;BME280;2377;51.734;8.950;2023-04-04T12:05:56;98905.97;;;8.11;48.31
27712;BME280;2377;51.734;8.950;2023-04-04T12:08:23;98899.28;;;8.18;47.08
27712;BME280;2377;51.734;8.950;2023-04-04T12:10:51;98915.63;;;8.24;46.73
27712;BME280;2377;51.734;8.950;2023-04-04T12:13:18;98909.66;;;8.32;46.81
27712;BME280;2377;51.734;8.950;2023-04-04T12:15:47;98909.50;;;8.33;45.80
27712;BME280;2377;51.734;8.950;2023-04-04T12:18:22;98903.50;;;8.26;44.33
27712;BME280;2377;51.734;8.950;2023-04-04T12:20:50;98888.03;;;8.27;44.83
27712;BME280;2377;51.734;8.950;2023-04-04T12:23:18;98885.72;;;8.18;43.51
27712;BME280;2377;51.734;8.950;2023-04-04T12:25:45;98882.75;;;8.14;42.53
27712;BME280;2377;51.734;8.950;2023-04-04T12:28:18;98879.59;;;8.04;42.54
27712;BME280;2377;51.734;8.950;2023-04-04T12:30:46;98868.72;;;7.87;41.61
27712;BME280;2377;51.734;8.950;2023-04-04T12:33:13;98872.47;;;7.76;40.31
27712;BME280;2377;51.734;8.950;2023-04-04T12:35:51;98879.00;;;7.71;41.79
27712;BME280;2377;51.734;8.950;2023-04-04T12:38:19;98876.63;;;7.69;42.49
27712;BME280;2377;51.734;8.950;2023-04-04T12:40:46;98872.84;;;7.65;43.21
27712;BME280;2377;51.734;8.950;2023-04-04T12:43:16;98880.75;;;7.70;41.93
27712;BME280;2377;51.734;8.950;2023-04-04T12:45:45;98879.00;;;7.71;41.87
27712;BME280;2377;51.734;8.950;2023-04-04T12:48:15;98875.03;;;7.68;40.82
27712;BME280;2377;51.734;8.950;2023-04-04T12:50:53;98874.38;;;7.74;39.74
27712;BME280;2377;51.734;8.950;2023-04-04T12:53:23;98873.66;;;7.89;41.82
27712;BME280;2377;51.734;8.950;2023-04-04T12:55:51;98881.56;;;8.02;43.18
27712;BME280;2377;51.734;8.950;2023-04-04T12:58:21;98867.38;;;8.22;44.28
27712;BME280;2377;51.734;8.950;2023-04-04T13:00:51;98870.78;;;8.38;44.01
27712;BME280;2377;51.734;8.950;2023-04-04T13:03:21;98857.56;;;8.42;44.08
27712;BME280;2377;51.734;8.950;2023-04-04T13:05:50;98852.13;;;8.45;43.60
27712;BME280;2377;51.734;8.950;2023-04-04T13:08:18;98847.13;;;8.52;42.50
27712;BME280;2377;51.734;8.950;2023-04-04T13:10:57;98851.44;;;8.52;40.82
27712;BME280;2377;51.734;8.950;2023-04-04T13:13:32;98847.38;;;8.42;41.10
27712;BME280;2377;51.734;8.950;2023-04-04T13:16:01;98837.97;;;8.43;42.37
27712;BME280;2377;51.734;8.950;2023-04-04T13:18:33;98841.41;;;8.50;42.21
27712;BME280;2377;51.734;8.950;2023-04-04T13:21:04;98830.94;;;8.45;40.87
27712;BME280;2377;51.734;8.950;2023-04-04T13:23:34;98831.31;;;8.34;40.44
27712;BME280;2377;51.734;8.950;2023-04-04T13:26:02;98831.06;;;8.29;42.01